sensor_id;sensor_type;location;lat;lon;timestamp;temperature;humidity
45619;DHT22;31343;47.520;19.144;2023-04-25T00:02:21;12.90;99.90
45619;DHT22;31343;47.520;19.144;2023-04-25T00:04:47;12.80;99.90
45619;DHT22;31343;47.520;19.144;2023-04-25T00:07:15;12.80;99.90
45619;DHT22;31343;47.520;19.144;2023-04-25T00:09:41;12.80;99.90
45619;DHT22;31343;47.520;19.144;2023-04-25T00:12:07;12.80;99.90
45619;DHT22;31343;47.520;19.144;2023-04-25T00:14:34;12.90;99.90
45619;DHT22;31343;47.520;19.144;2023-04-25T00:17:01;12.90;99.90
45619;DHT22;31343;47.520;19.144;2023-04-25T00:19:28;12.90;99.90
45619;DHT22;31343;47.520;19.144;2023-04-25T00:21:56;12.90;99.90
45619;DHT22;31343;47.520;19.144;2023-04-25T00:24:22;12.90;99.90
45619;DHT22;31343;47.520;19.144;2023-04-25T00:26:48;12.80;99.90
45619;DHT22;31343;47.520;19.144;2023-04-25T00:29:14;12.80;99.90
45619;DHT22;31343;47.520;19.144;2023-04-25T00:31:40;12.70;99.90
45619;DHT22;31343;47.520;19.144;2023-04-25T00:34:08;12.70;99.90
45619;DHT22;31343;47.520;19.144;2023-04-25T00:36:34;12.70;99.90
45619;DHT22;31343;47.520;19.144;2023-04-25T00:39:00;12.60;99.90
45619;DHT22;31343;47.520;19.144;2023-04-25T00:41:26;12.70;99.90
45619;DHT22;31343;47.520;19.144;2023-04-25T00:43:52;12.70;99.90
45619;DHT22;31343;47.520;19.144;2023-04-25T00:46:19;12.60;99.90
45619;DHT22;31343;47.520;19.144;2023-04-25T00:48:45;12.50;99.90
45619;DHT22;31343;47.520;19.144;2023-04-25T00:51:16;12.60;99.90
45619;DHT22;31343;47.520;19.144;2023-04-25T00:53:44;12.60;99.90
45619;DHT22;31343;47.520;19.144;2023-04-25T00:56:10;12.60;99.90
45619;DHT22;31343;47.520;19.144;2023-04-25T00:58:37;12.60;99.90
45619;DHT22;31343;47.520;19.144;2023-04-25T01:01:03;12.50;99.90
45619;DHT22;31343;47.520;19.144;2023-04-25T01:03:32;12.60;99.90
45619;DHT22;31343;47.520;19.144;2023-04-25T01:05:58;12.60;99.90
45619;DHT22;31343;47.520;19.144;2023-04-25T01:08:24;12.60;99.90
45619;DHT22;31343;47.520;19.144;2023-04-25T01:10:51;12.70;99.90
45619;DHT22;31343;47.520;19.144;2023-04-25T01:13:16;12.70;99.90
45619;DHT22;31343;47.520;19.144;2023-04-25T01:15:42;12.60;99.90
45619;DHT22;31343;47.520;19.144;2023-04-25T01:18:09;12.60;99.90
45619;DHT22;31343;47.520;19.144;2023-04-25T01:20:37;12.60;99.90
45619;DHT22;31343;47.520;19.144;2023-04-25T01:23:04;12.60;99.90
45619;DHT22;31343;47.520;19.144;2023-04-25T01:25:30;12.60;99.90
45619;DHT22;31343;47.520;19.144;2023-04-25T01:27:57;12.60;99.90
45619;DHT22;31343;47.520;19.144;2023-04-25T01:30:25;12.60;99.90
45619;DHT22;31343;47.520;19.144;2023-04-25T01:32:54;12.70;99.90
45619;DHT22;31343;47.520;19.144;2023-04-25T01:35:20;12.60;99.90
45619;DHT22;31343;47.520;19.144;2023-04-25T01:37:46;12.60;99.90
45619;DHT22;31343;47.520;19.144;2023-04-25T01:40:12;12.60;99.90
45619;DHT22;31343;47.520;19.144;2023-04-25T01:42:42;12.60;99.90
45619;DHT22;31343;47.520;19.144;2023-04-25T01:45:10;12.60;99.90
45619;DHT22;31343;47.520;19.144;2023-04-25T01:47:36;12.50;99.90
45619;DHT22;31343;47.520;19.144;2023-04-25T01:50:07;12.50;99.90
45619;DHT22;31343;47.520;19.144;2023-04-25T01:52:33;12.40;99.90
45619;DHT22;31343;47.520;19.144;2023-04-25T01:55:03;12.40;99.90
45619;DHT22;31343;47.520;19.144;2023-04-25T01:57:29;12.50;99.90
45619;DHT22;31343;47.520;19.144;2023-04-25T01:59:59;12.50;99.90
45619;DHT22;31343;47.520;19.144;2023-04-25T02:02:25;12.50;99.90
45619;DHT22;31343;47.520;19.144;2023-04-25T02:04:51;12.50;99.90
45619;DHT22;31343;47.520;19.144;2023-04-25T02:07:17;12.40;99.90
45619;DHT22;31343;47.520;19.144;2023-04-25T02:09:43;12.50;99.90
45619;DHT22;31343;47.520;19.144;2023-04-25T02:12:10;12.40;99.90
45619;DHT22;31343;47.520;19.144;2023-04-25T02:14:36;12.40;99.90
45619;DHT22;31343;47.520;19.144;2023-04-25T02:17:01;12.50;99.90
45619;DHT22;31343;47.520;19.144;2023-04-25T02:19:27;12.50;99.90
45619;DHT22;31343;47.520;19.144;2023-04-25T02:21:53;12.40;99.90
45619;DHT22;31343;47.520;19.144;2023-04-25T02:24:19;12.40;99.90
45619;DHT22;31343;47.520;19.144;2023-04-25T02:26:44;12.40;99.90
45619;DHT22;31343;47.520;19.144;2023-04-25T02:29:12;12.50;99.90
45619;DHT22;31343;47.520;19.144;2023-04-25T02:31:38;12.40;99.90
45619;DHT22;31343;47.520;19.144;2023-04-25T02:34:04;12.40;99.90
45619;DHT22;31343;47.520;19.144;2023-04-25T02:36:30;12.50;99.90
45619;DHT22;31343;47.520;19.144;2023-04-25T02:39:00;12.50;99.90
45619;DHT22;31343;47.520;19.144;2023-04-25T02:41:26;12.50;99.90
45619;DHT22;31343;47.520;19.144;2023-04-25T02:43:52;12.50;99.90
45619;DHT22;31343;47.520;19.144;2023-04-25T02:46:18;12.40;99.90
45619;DHT22;31343;47.520;19.144;2023-04-25T02:48:43;12.40;99.90
45619;DHT22;31343;47.520;19.144;2023-04-25T02:51:09;12.40;99.90
45619;DHT22;31343;47.520;19.144;2023-04-25T02:53:35;12.40;99.90
45619;DHT22;31343;47.520;19.144;2023-04-25T02:56:01;12.40;99.90
45619;DHT22;31343;47.520;19.144;2023-04-25T02:58:27;12.40;99.90
45619;DHT22;31343;47.520;19.144;2023-04-25T03:00:53;12.50;99.90
45619;DHT22;31343;47.520;19.144;2023-04-25T03:03:19;12.50;99.90
45619;DHT22;31343;47.520;19.144;2023-04-25T03:05:50;12.50;99.90
45619;DHT22;31343;47.520;19.144;2023-04-25T03:08:17;12.50;99.90
45619;DHT22;31343;47.520;19.144;2023-04-25T03:10:43;12.50;99.90
45619;DHT22;31343;47.520;19.144;2023-04-25T03:13:09;12.50;99.90
45619;DHT22;31343;47.520;19.144;2023-04-25T03:15:35;12.50;99.90
45619;DHT22;31343;47.520;19.144;2023-04-25T03:18:01;12.50;99.90
45619;DHT22;31343;47.520;19.144;2023-04-25T03:20:28;12.50;99.90
45619;DHT22;31343;47.520;19.144;2023-04-25T03:22:54;12.40;99.90
45619;DHT22;31343;47.520;19.144;2023-04-25T03:25:19;12.50;99.90
45619;DHT22;31343;47.520;19.144;2023-04-25T03:27:45;12.50;99.90
45619;DHT22;31343;47.520;19.144;2023-04-25T03:30:11;12.50;99.90
45619;DHT22;31343;47.520;19.144;2023-04-25T03:32:37;12.50;99.90
45619;DHT22;31343;47.520;19.144;2023-04-25T03:35:03;12.50;99.90
45619;DHT22;31343;47.520;19.144;2023-04-25T03:37:29;12.50;99.90
45619;DHT22;31343;47.520;19.144;2023-04-25T03:39:54;12.50;99.90
45619;DHT22;31343;47.520;19.144;2023-04-25T03:42:20;12.50;99.90
45619;DHT22;31343;47.520;19.144;2023-04-25T03:44:49;12.30;99.90
45619;DHT22;31343;47.520;19.144;2023-04-25T03:47:14;12.40;99.90
45619;DHT22;31343;47.520;19.144;2023-04-25T03:49:41;12.40;99.90
45619;DHT22;31343;47.520;19.144;2023-04-25T03:52:07;12.30;99.90
45619;DHT22;31343;47.520;19.144;2023-04-25T03:54:34;12.30;99.90
45619;DHT22;31343;47.520;19.144;2023-04-25T03:57:00;12.30;99.90
45619;DHT22;31343;47.520;19.144;2023-04-25T03:59:25;12.30;99.90
45619;DHT22;31343;47.520;19.144;2023-04-25T04:01:52;12.20;99.90
45619;DHT22;31343;47.520;19.144;2023-04-25T04:04:18;12.30;99.90
45619;DHT22;31343;47.520;19.144;2023-04-25T04:06:43;12.20;99.90
45619;DHT22;31343;47.520;19.144;2023-04-25T04:09:09;12.20;99.90
45619;DHT22;31343;47.520;19.144;2023-04-25T04:11:37;12.20;99.90
45619;DHT22;31343;47.520;19.144;2023-04-25T04:14:05;12.10;99.90
45619;DHT22;31343;47.520;19.144;2023-04-25T04:16:32;12.10;99.90
45619;DHT22;31343;47.520;19.144;2023-04-25T04:18:58;12.10;99.90
45619;DHT22;31343;47.520;19.144;2023-04-25T04:21:23;12.10;99.90
45619;DHT22;31343;47.520;19.144;2023-04-25T04:23:49;12.10;99.90
45619;DHT22;31343;47.520;19.144;2023-04-25T04:26:15;12.10;99.90
45619;DHT22;31343;47.520;19.144;2023-04-25T04:28:43;12.00;99.90
45619;DHT22;31343;47.520;19.144;2023-04-25T04:31:12;12.00;99.90
45619;DHT22;31343;47.520;19.144;2023-04-25T04:33:38;12.00;99.90
45619;DHT22;31343;47.520;19.144;2023-04-25T04:36:04;11.90;99.90
45619;DHT22;31343;47.520;19.144;2023-04-25T04:38:30;11.90;99.90
45619;DHT22;31343;47.520;19.144;2023-04-25T04:40:55;11.80;99.90
45619;DHT22;31343;47.520;19.144;2023-04-25T04:43:21;11.70;99.90
45619;DHT22;31343;47.520;19.144;2023-04-25T04:45:48;11.70;99.90
45619;DHT22;31343;47.520;19.144;2023-04-25T04:48:16;11.70;99.90
45619;DHT22;31343;47.520;19.144;2023-04-25T04:50:44;11.70;99.90
45619;DHT22;31343;47.520;19.144;2023-04-25T04:53:13;11.70;99.90
45619;DHT22;31343;47.520;19.144;2023-04-25T04:55:39;11.60;99.90
45619;DHT22;31343;47.520;19.144;2023-04-25T04:58:07;11.60;99.90
45619;DHT22;31343;47.520;19.144;2023-04-25T05:00:33;11.60;99.90
45619;DHT22;31343;47.520;19.144;2023-04-25T05:02:58;11.60;99.90
45619;DHT22;31343;47.520;19.144;2023-04-25T05:05:25;11.60;99.90
45619;DHT22;31343;47.520;19.144;2023-04-25T05:07:50;11.60;99.90
45619;DHT22;31343;47.520;19.144;2023-04-25T05:10:17;11.60;99.90
45619;DHT22;31343;47.520;19.144;2023-04-25T05:12:44;11.60;99.90
45619;DHT22;31343;47.520;19.144;2023-04-25T05:15:10;11.50;99.90
45619;DHT22;31343;47.520;19.144;2023-04-25T05:17:36;11.50;99.90
45619;DHT22;31343;47.520;19.144;2023-04-25T05:20:02;11.50;99.90
45619;DHT22;31343;47.520;19.144;2023-04-25T05:22:28;11.40;99.90
45619;DHT22;31343;47.520;19.144;2023-04-25T05:24:54;11.40;99.90
45619;DHT22;31343;47.520;19.144;2023-04-25T05:27:20;11.30;99.90
45619;DHT22;31343;47.520;19.144;2023-04-25T05:29:46;11.30;99.90
45619;DHT22;31343;47.520;19.144;2023-04-25T05:32:11;11.20;99.90
45619;DHT22;31343;47.520;19.144;2023-04-25T05:34:37;11.20;99.90
45619;DHT22;31343;47.520;19.144;2023-04-25T05:37:03;11.20;99.90
45619;DHT22;31343;47.520;19.144;2023-04-25T05:39:29;11.20;99.90
45619;DHT22;31343;47.520;19.144;2023-04-25T05:41:55;11.20;99.90
45619;DHT22;31343;47.520;19.144;2023-04-25T05:44:21;11.10;99.90
45619;DHT22;31343;47.520;19.144;2023-04-25T05:46:47;11.10;99.90
45619;DHT22;31343;47.520;19.144;2023-04-25T05:49:13;11.20;99.90
45619;DHT22;31343;47.520;19.144;2023-04-25T05:51:38;11.10;99.90
45619;DHT22;31343;47.520;19.144;2023-04-25T05:54:04;11.10;99.90
45619;DHT22;31343;47.520;19.144;2023-04-25T05:56:30;11.10;99.90
45619;DHT22;31343;47.520;19.144;2023-04-25T05:58:55;11.10;99.90
45619;DHT22;31343;47.520;19.144;2023-04-25T06:01:22;10.90;99.90
45619;DHT22;31343;47.520;19.144;2023-04-25T06:03:48;10.80;99.90
45619;DHT22;31343;47.520;19.144;2023-04-25T06:06:14;10.70;99.90
45619;DHT22;31343;47.520;19.144;2023-04-25T06:08:41;10.70;99.90
45619;DHT22;31343;47.520;19.144;2023-04-25T06:11:06;10.60;99.90
45619;DHT22;31343;47.520;19.144;2023-04-25T06:13:32;10.60;99.90
45619;DHT22;31343;47.520;19.144;2023-04-25T06:15:58;10.70;99.90
45619;DHT22;31343;47.520;19.144;2023-04-25T06:18:24;10.60;99.90
45619;DHT22;31343;47.520;19.144;2023-04-25T06:20:50;10.60;99.90
45619;DHT22;31343;47.520;19.144;2023-04-25T06:23:15;10.60;99.90
45619;DHT22;31343;47.520;19.144;2023-04-25T06:25:41;10.60;99.90
45619;DHT22;31343;47.520;19.144;2023-04-25T06:28:06;10.50;99.90
45619;DHT22;31343;47.520;19.144;2023-04-25T06:30:32;10.60;99.90
45619;DHT22;31343;47.520;19.144;2023-04-25T06:32:58;10.60;99.90
45619;DHT22;31343;47.520;19.144;2023-04-25T06:35:23;10.70;99.90
45619;DHT22;31343;47.520;19.144;2023-04-25T06:37:49;10.70;99.90
45619;DHT22;31343;47.520;19.144;2023-04-25T06:40:15;10.80;99.90
45619;DHT22;31343;47.520;19.144;2023-04-25T06:42:43;10.80;99.90
45619;DHT22;31343;47.520;19.144;2023-04-25T06:45:09;10.80;99.90
45619;DHT22;31343;47.520;19.144;2023-04-25T06:47:35;10.90;99.90
45619;DHT22;31343;47.520;19.144;2023-04-25T06:50:00;11.10;99.90
45619;DHT22;31343;47.520;19.144;2023-04-25T06:52:26;11.20;99.90
45619;DHT22;31343;47.520;19.144;2023-04-25T06:54:52;11.30;99.90
45619;DHT22;31343;47.520;19.144;2023-04-25T06:57:18;11.50;99.90
45619;DHT22;31343;47.520;19.144;2023-04-25T06:59:43;11.80;99.90
45619;DHT22;31343;47.520;19.144;2023-04-25T07:02:09;12.00;99.90
45619;DHT22;31343;47.520;19.144;2023-04-25T07:04:36;12.20;99.90
45619;DHT22;31343;47.520;19.144;2023-04-25T07:07:02;12.40;99.90
45619;DHT22;31343;47.520;19.144;2023-04-25T07:09:28;12.50;99.90
45619;DHT22;31343;47.520;19.144;2023-04-25T07:11:54;12.50;99.90
45619;DHT22;31343;47.520;19.144;2023-04-25T07:14:20;12.70;99.90
45619;DHT22;31343;47.520;19.144;2023-04-25T07:16:46;12.90;99.90
45619;DHT22;31343;47.520;19.144;2023-04-25T07:19:12;13.10;99.90
45619;DHT22;31343;47.520;19.144;2023-04-25T07:21:37;13.30;99.90
45619;DHT22;31343;47.520;19.144;2023-04-25T07:24:03;13.50;99.90
45619;DHT22;31343;47.520;19.144;2023-04-25T07:26:29;13.60;99.90
45619;DHT22;31343;47.520;19.144;2023-04-25T07:28:55;13.60;99.90
45619;DHT22;31343;47.520;19.144;2023-04-25T07:31:22;13.50;99.90
45619;DHT22;31343;47.520;19.144;2023-04-25T07:33:48;13.50;99.90
45619;DHT22;31343;47.520;19.144;2023-04-25T07:36:14;13.60;99.90
45619;DHT22;31343;47.520;19.144;2023-04-25T07:38:41;13.60;99.90
45619;DHT22;31343;47.520;19.144;2023-04-25T07:41:07;13.60;99.90
45619;DHT22;31343;47.520;19.144;2023-04-25T07:43:33;13.70;99.90
45619;DHT22;31343;47.520;19.144;2023-04-25T07:45:58;13.90;99.90
45619;DHT22;31343;47.520;19.144;2023-04-25T07:48:24;14.00;99.90
45619;DHT22;31343;47.520;19.144;2023-04-25T07:50:50;13.90;99.90
45619;DHT22;31343;47.520;19.144;2023-04-25T07:53:16;14.10;99.90
45619;DHT22;31343;47.520;19.144;2023-04-25T07:55:43;13.90;99.90
45619;DHT22;31343;47.520;19.144;2023-04-25T07:58:09;14.10;99.90
45619;DHT22;31343;47.520;19.144;2023-04-25T08:00:35;14.00;99.90
45619;DHT22;31343;47.520;19.144;2023-04-25T08:03:01;14.10;99.90
45619;DHT22;31343;47.520;19.144;2023-04-25T08:05:28;14.10;99.90
45619;DHT22;31343;47.520;19.144;2023-04-25T08:07:54;14.30;99.90
45619;DHT22;31343;47.520;19.144;2023-04-25T08:10:20;14.30;99.90
45619;DHT22;31343;47.520;19.144;2023-04-25T08:12:48;14.70;99.90
45619;DHT22;31343;47.520;19.144;2023-04-25T08:15:14;15.20;99.90
45619;DHT22;31343;47.520;19.144;2023-04-25T08:17:40;15.90;99.90
45619;DHT22;31343;47.520;19.144;2023-04-25T08:20:06;16.10;99.90
45619;DHT22;31343;47.520;19.144;2023-04-25T08:22:32;16.10;99.90
45619;DHT22;31343;47.520;19.144;2023-04-25T08:24:59;16.30;99.90
45619;DHT22;31343;47.520;19.144;2023-04-25T08:27:25;16.50;99.90
45619;DHT22;31343;47.520;19.144;2023-04-25T08:29:51;16.90;99.90
45619;DHT22;31343;47.520;19.144;2023-04-25T08:32:17;16.90;99.90
45619;DHT22;31343;47.520;19.144;2023-04-25T08:34:43;17.00;99.90
45619;DHT22;31343;47.520;19.144;2023-04-25T08:37:10;17.10;99.90
45619;DHT22;31343;47.520;19.144;2023-04-25T08:39:36;16.90;99.90
45619;DHT22;31343;47.520;19.144;2023-04-25T08:42:06;17.00;99.90
45619;DHT22;31343;47.520;19.144;2023-04-25T08:44:35;16.70;99.90
45619;DHT22;31343;47.520;19.144;2023-04-25T08:47:04;16.80;99.90
45619;DHT22;31343;47.520;19.144;2023-04-25T08:49:34;16.70;99.90
45619;DHT22;31343;47.520;19.144;2023-04-25T08:52:02;17.00;99.90
45619;DHT22;31343;47.520;19.144;2023-04-25T08:54:30;17.00;99.90
45619;DHT22;31343;47.520;19.144;2023-04-25T08:56:57;17.30;99.90
45619;DHT22;31343;47.520;19.144;2023-04-25T08:59:28;17.10;99.90
45619;DHT22;31343;47.520;19.144;2023-04-25T09:01:54;17.10;99.90
45619;DHT22;31343;47.520;19.144;2023-04-25T09:04:20;16.90;99.90
45619;DHT22;31343;47.520;19.144;2023-04-25T09:06:47;17.00;99.90
45619;DHT22;31343;47.520;19.144;2023-04-25T09:09:13;17.10;99.90
45619;DHT22;31343;47.520;19.144;2023-04-25T09:11:39;17.40;99.90
45619;DHT22;31343;47.520;19.144;2023-04-25T09:14:17;17.50;99.90
45619;DHT22;31343;47.520;19.144;2023-04-25T09:17:02;17.70;99.90
45619;DHT22;31343;47.520;19.144;2023-04-25T09:19:35;17.70;99.90
45619;DHT22;31343;47.520;19.144;2023-04-25T09:22:03;17.60;99.90
45619;DHT22;31343;47.520;19.144;2023-04-25T09:24:35;17.50;99.90
45619;DHT22;31343;47.520;19.144;2023-04-25T09:27:12;17.40;99.90
45619;DHT22;31343;47.520;19.144;2023-04-25T09:29:40;17.50;99.90
45619;DHT22;31343;47.520;19.144;2023-04-25T09:34:43;17.30;99.90
45619;DHT22;31343;47.520;19.144;2023-04-25T09:37:09;17.30;99.90
45619;DHT22;31343;47.520;19.144;2023-04-25T09:39:37;17.40;99.90
45619;DHT22;31343;47.520;19.144;2023-04-25T09:42:04;17.40;99.90
45619;DHT22;31343;47.520;19.144;2023-04-25T09:44:29;17.40;99.90
45619;DHT22;31343;47.520;19.144;2023-04-25T09:46:55;17.50;99.90
45619;DHT22;31343;47.520;19.144;2023-04-25T09:49:21;17.60;99.90
45619;DHT22;31343;47.520;19.144;2023-04-25T09:51:59;17.50;98.90
45619;DHT22;31343;47.520;19.144;2023-04-25T09:54:25;17.40;99.90
45619;DHT22;31343;47.520;19.144;2023-04-25T09:56:53;17.50;99.90
45619;DHT22;31343;47.520;19.144;2023-04-25T09:59:22;17.30;99.40
45619;DHT22;31343;47.520;19.144;2023-04-25T10:01:49;17.20;98.80
45619;DHT22;31343;47.520;19.144;2023-04-25T10:04:22;17.00;99.00
45619;DHT22;31343;47.520;19.144;2023-04-25T10:06:50;17.20;98.80
45619;DHT22;31343;47.520;19.144;2023-04-25T10:09:20;17.30;98.90
45619;DHT22;31343;47.520;19.144;2023-04-25T10:11:47;17.40;98.20
45619;DHT22;31343;47.520;19.144;2023-04-25T10:14:16;17.40;98.10
45619;DHT22;31343;47.520;19.144;2023-04-25T10:16:42;17.30;98.20
45619;DHT22;31343;47.520;19.144;2023-04-25T10:19:09;17.40;98.70
45619;DHT22;31343;47.520;19.144;2023-04-25T10:21:43;17.60;98.60
45619;DHT22;31343;47.520;19.144;2023-04-25T10:24:10;17.90;98.10
45619;DHT22;31343;47.520;19.144;2023-04-25T10:26:36;17.80;97.80
45619;DHT22;31343;47.520;19.144;2023-04-25T10:29:03;17.70;97.50
45619;DHT22;31343;47.520;19.144;2023-04-25T10:31:32;17.60;97.50
45619;DHT22;31343;47.520;19.144;2023-04-25T10:34:00;17.10;97.60
45619;DHT22;31343;47.520;19.144;2023-04-25T10:36:31;16.90;97.90
45619;DHT22;31343;47.520;19.144;2023-04-25T10:39:03;16.90;98.20
45619;DHT22;31343;47.520;19.144;2023-04-25T10:41:46;16.70;98.40
45619;DHT22;31343;47.520;19.144;2023-04-25T10:44:13;16.60;97.30
45619;DHT22;31343;47.520;19.144;2023-04-25T10:46:39;16.50;98.40
45619;DHT22;31343;47.520;19.144;2023-04-25T10:49:08;16.40;98.50
45619;DHT22;31343;47.520;19.144;2023-04-25T10:51:36;16.50;98.50
45619;DHT22;31343;47.520;19.144;2023-04-25T10:54:07;16.50;98.10
45619;DHT22;31343;47.520;19.144;2023-04-25T10:59:11;17.00;98.20
45619;DHT22;31343;47.520;19.144;2023-04-25T11:01:40;17.30;97.00
45619;DHT22;31343;47.520;19.144;2023-04-25T11:04:28;17.50;96.80
45619;DHT22;31343;47.520;19.144;2023-04-25T11:09:45;17.80;96.50
45619;DHT22;31343;47.520;19.144;2023-04-25T11:12:11;18.30;95.50
45619;DHT22;31343;47.520;19.144;2023-04-25T11:14:38;18.30;95.40
45619;DHT22;31343;47.520;19.144;2023-04-25T11:17:04;18.60;95.30
45619;DHT22;31343;47.520;19.144;2023-04-25T11:19:31;19.00;94.60
45619;DHT22;31343;47.520;19.144;2023-04-25T11:22:01;18.80;94.20
45619;DHT22;31343;47.520;19.144;2023-04-25T11:24:31;19.00;92.90
45619;DHT22;31343;47.520;19.144;2023-04-25T11:27:02;19.20;93.10
45619;DHT22;31343;47.520;19.144;2023-04-25T11:29:31;20.10;92.70
45619;DHT22;31343;47.520;19.144;2023-04-25T11:31:58;20.80;91.80
45619;DHT22;31343;47.520;19.144;2023-04-25T11:34:25;20.90;90.40
45619;DHT22;31343;47.520;19.144;2023-04-25T11:36:52;20.70;89.80
45619;DHT22;31343;47.520;19.144;2023-04-25T11:39:21;20.90;89.90
45619;DHT22;31343;47.520;19.144;2023-04-25T11:41:49;21.30;89.80
45619;DHT22;31343;47.520;19.144;2023-04-25T11:44:19;21.20;90.20
45619;DHT22;31343;47.520;19.144;2023-04-25T11:46:46;21.60;87.10
45619;DHT22;31343;47.520;19.144;2023-04-25T11:49:13;21.80;87.70
45619;DHT22;31343;47.520;19.144;2023-04-25T11:51:43;22.50;84.20
45619;DHT22;31343;47.520;19.144;2023-04-25T11:54:10;23.10;82.10
45619;DHT22;31343;47.520;19.144;2023-04-25T11:56:35;22.20;83.00
45619;DHT22;31343;47.520;19.144;2023-04-25T11:59:04;21.20;84.90
45619;DHT22;31343;47.520;19.144;2023-04-25T12:01:35;20.70;85.90
45619;DHT22;31343;47.520;19.144;2023-04-25T12:04:22;19.80;86.20
45619;DHT22;31343;47.520;19.144;2023-04-25T12:06:50;19.20;86.60
45619;DHT22;31343;47.520;19.144;2023-04-25T12:09:19;18.80;89.60
45619;DHT22;31343;47.520;19.144;2023-04-25T12:11:53;18.50;89.10
45619;DHT22;31343;47.520;19.144;2023-04-25T12:14:27;18.40;89.90
45619;DHT22;31343;47.520;19.144;2023-04-25T12:16:58;18.00;88.40
45619;DHT22;31343;47.520;19.144;2023-04-25T12:19:24;18.20;89.30
45619;DHT22;31343;47.520;19.144;2023-04-25T12:21:51;18.40;89.50
45619;DHT22;31343;47.520;19.144;2023-04-25T12:24:22;18.70;88.10
45619;DHT22;31343;47.520;19.144;2023-04-25T12:29:26;19.20;86.60
45619;DHT22;31343;47.520;19.144;2023-04-25T12:31:54;19.60;85.70
45619;DHT22;31343;47.520;19.144;2023-04-25T12:34:20;19.60;83.00
45619;DHT22;31343;47.520;19.144;2023-04-25T12:36:47;20.30;81.30
45619;DHT22;31343;47.520;19.144;2023-04-25T12:39:16;20.40;81.70
45619;DHT22;31343;47.520;19.144;2023-04-25T12:41:43;20.70;81.70
45619;DHT22;31343;47.520;19.144;2023-04-25T12:44:08;21.50;82.00
45619;DHT22;31343;47.520;19.144;2023-04-25T12:46:35;21.30;79.70
45619;DHT22;31343;47.520;19.144;2023-04-25T12:49:00;21.80;79.70
45619;DHT22;31343;47.520;19.144;2023-04-25T12:51:29;20.70;78.30
45619;DHT22;31343;47.520;19.144;2023-04-25T12:53:55;20.70;81.80
45619;DHT22;31343;47.520;19.144;2023-04-25T12:56:21;20.10;81.70
45619;DHT22;31343;47.520;19.144;2023-04-25T12:58:46;20.10;81.80
45619;DHT22;31343;47.520;19.144;2023-04-25T13:01:14;20.30;81.50
45619;DHT22;31343;47.520;19.144;2023-04-25T13:03:40;20.50;80.60
45619;DHT22;31343;47.520;19.144;2023-04-25T13:06:07;20.50;78.30
45619;DHT22;31343;47.520;19.144;2023-04-25T13:08:32;20.40;77.90
45619;DHT22;31343;47.520;19.144;2023-04-25T13:10:58;20.20;76.50
45619;DHT22;31343;47.520;19.144;2023-04-25T13:13:24;20.10;77.20
45619;DHT22;31343;47.520;19.144;2023-04-25T13:15:50;20.00;77.80
45619;DHT22;31343;47.520;19.144;2023-04-25T13:18:15;19.90;78.30
45619;DHT22;31343;47.520;19.144;2023-04-25T13:20:41;19.70;80.00
45619;DHT22;31343;47.520;19.144;2023-04-25T13:23:07;19.80;79.30
45619;DHT22;31343;47.520;19.144;2023-04-25T13:25:32;19.70;80.00
45619;DHT22;31343;47.520;19.144;2023-04-25T13:27:58;19.70;76.80
45619;DHT22;31343;47.520;19.144;2023-04-25T13:30:24;19.30;76.80
45619;DHT22;31343;47.520;19.144;2023-04-25T13:32:50;19.10;77.90
45619;DHT22;31343;47.520;19.144;2023-04-25T13:35:17;19.00;78.70
45619;DHT22;31343;47.520;19.144;2023-04-25T13:37:43;19.10;78.80
45619;DHT22;31343;47.520;19.144;2023-04-25T13:40:10;19.00;79.10
45619;DHT22;31343;47.520;19.144;2023-04-25T13:42:37;19.10;78.70
45619;DHT22;31343;47.520;19.144;2023-04-25T13:45:03;19.00;78.50
45619;DHT22;31343;47.520;19.144;2023-04-25T13:47:29;19.00;77.20
45619;DHT22;31343;47.520;19.144;2023-04-25T13:49:56;18.70;76.80
45619;DHT22;31343;47.520;19.144;2023-04-25T13:52:22;18.50;76.30
45619;DHT22;31343;47.520;19.144;2023-04-25T13:54:50;18.40;75.90
45619;DHT22;31343;47.520;19.144;2023-04-25T13:57:17;18.20;75.20
45619;DHT22;31343;47.520;19.144;2023-04-25T13:59:43;18.20;76.30
45619;DHT22;31343;47.520;19.144;2023-04-25T14:02:09;18.20;77.50
45619;DHT22;31343;47.520;19.144;2023-04-25T14:04:35;18.20;77.70
45619;DHT22;31343;47.520;19.144;2023-04-25T14:07:01;18.20;76.90
45619;DHT22;31343;47.520;19.144;2023-04-25T14:09:27;18.30;77.20
45619;DHT22;31343;47.520;19.144;2023-04-25T14:11:53;18.30;77.20
45619;DHT22;31343;47.520;19.144;2023-04-25T14:14:20;18.20;76.70
45619;DHT22;31343;47.520;19.144;2023-04-25T14:16:47;18.30;77.90
45619;DHT22;31343;47.520;19.144;2023-04-25T14:19:16;18.30;76.00
45619;DHT22;31343;47.520;19.144;2023-04-25T14:21:42;18.30;76.20
45619;DHT22;31343;47.520;19.144;2023-04-25T14:24:11;18.20;76.60
45619;DHT22;31343;47.520;19.144;2023-04-25T14:26:37;18.20;77.30
45619;DHT22;31343;47.520;19.144;2023-04-25T14:29:04;18.20;77.00
45619;DHT22;31343;47.520;19.144;2023-04-25T14:31:30;18.30;77.30
45619;DHT22;31343;47.520;19.144;2023-04-25T14:33:56;18.30;77.70
45619;DHT22;31343;47.520;19.144;2023-04-25T14:36:22;18.30;77.40
45619;DHT22;31343;47.520;19.144;2023-04-25T14:38:48;18.20;78.40
45619;DHT22;31343;47.520;19.144;2023-04-25T14:41:13;18.20;78.60
45619;DHT22;31343;47.520;19.144;2023-04-25T14:43:39;18.10;78.30
45619;DHT22;31343;47.520;19.144;2023-04-25T14:46:10;18.20;78.90
45619;DHT22;31343;47.520;19.144;2023-04-25T14:48:36;18.20;78.10
45619;DHT22;31343;47.520;19.144;2023-04-25T14:51:02;18.20;78.50
45619;DHT22;31343;47.520;19.144;2023-04-25T14:53:28;18.20;77.80
45619;DHT22;31343;47.520;19.144;2023-04-25T14:55:53;18.10;77.60
45619;DHT22;31343;47.520;19.144;2023-04-25T14:58:19;18.10;76.10
45619;DHT22;31343;47.520;19.144;2023-04-25T15:00:46;18.00;76.10
45619;DHT22;31343;47.520;19.144;2023-04-25T15:03:12;17.90;76.80
45619;DHT22;31343;47.520;19.144;2023-04-25T15:05:39;17.80;76.40
45619;DHT22;31343;47.520;19.144;2023-04-25T15:08:05;17.70;77.20
45619;DHT22;31343;47.520;19.144;2023-04-25T15:10:31;17.50;76.60
45619;DHT22;31343;47.520;19.144;2023-04-25T15:12:57;17.50;77.70
45619;DHT22;31343;47.520;19.144;2023-04-25T15:15:22;17.40;77.90
45619;DHT22;31343;47.520;19.144;2023-04-25T15:17:49;17.40;78.10
45619;DHT22;31343;47.520;19.144;2023-04-25T15:20:16;17.50;77.30
45619;DHT22;31343;47.520;19.144;2023-04-25T15:22:43;17.30;77.00
45619;DHT22;31343;47.520;19.144;2023-04-25T15:25:09;17.30;78.20